ADDS METAR Data INFO
IDs: Format: Raw Decoded Include TAF

Data at: 2135 UTC 15 Dec 2017

KDUA 152115Z AUTO 29009KT 10SM CLR 12/M05 A3021 RMK AO2
KDUA 152055Z AUTO 31007KT 10SM CLR 12/M03 A3022 RMK AO2
KDUA 152035Z AUTO 28003KT 10SM CLR 12/M03 A3022 RMK AO2
KDUA 152015Z AUTO 32006KT 10SM CLR 12/M03 A3023 RMK AO2
KDUA 151955Z AUTO 33007KT 10SM CLR 12/M03 A3023 RMK AO2
KDUA 151935Z AUTO 32004KT 10SM CLR 12/M05 A3024 RMK AO2
KDUA 151915Z AUTO 28007KT 10SM CLR 12/M03 A3024 RMK AO2
KDUA 151855Z AUTO 28003KT 10SM CLR 12/M02 A3025 RMK AO2
KDUA 151835Z AUTO 00000KT 10SM CLR 11/M02 A3026 RMK AO2
KDUA 151815Z AUTO 34010KT 10SM SCT044 11/M02 A3027 RMK AO2
KDUA 151755Z AUTO 34006KT 10SM CLR 11/00 A3027 RMK AO2
KDUA 151735Z AUTO 33006KT 10SM CLR 10/00 A3028 RMK AO2
KDUA 151715Z AUTO 34006KT 10SM CLR 09/00 A3030 RMK AO2
KDUA 151655Z AUTO 34006KT 10SM CLR 08/01 A3032 RMK AO2
KDUA 151635Z AUTO 35008KT 250V020 10SM CLR 07/00 A3032 RMK AO2
KDUA 151615Z AUTO 34010KT 250V010 10SM CLR 07/01 A3031 RMK AO2
KDUA 151555Z AUTO 33006KT 10SM CLR 06/01 A3031 RMK AO2
KDUA 151535Z AUTO 33006KT 10SM CLR 06/00 A3032 RMK AO2
KDUA 151515Z AUTO 34006KT 10SM CLR 05/00 A3030 RMK AO2
KDUA 151455Z AUTO 34004KT 10SM CLR 03/00 A3030 RMK AO2
KDUA 151435Z AUTO 00000KT 10SM CLR 02/00 A3030 RMK AO2
KDUA 151415Z AUTO 00000KT 10SM CLR 01/M01 A3029 RMK AO2
KDUA 151355Z AUTO 00000KT 10SM CLR 00/M01 A3028 RMK AO2
KDUA 151335Z AUTO 00000KT 10SM CLR 00/M02 A3028 RMK AO2
KDUA 151315Z AUTO 31004KT 10SM CLR 00/M02 A3028 RMK AO2
KDUA 151255Z AUTO 31004KT 10SM CLR 00/M02 A3027 RMK AO2
KDUA 151235Z AUTO 32005KT 10SM CLR 00/M02 A3027 RMK AO2
KDUA 151215Z AUTO 32006KT 10SM CLR 01/M02 A3026 RMK AO2
KDUA 151155Z AUTO 32005KT 10SM CLR 01/M02 A3025 RMK AO2
KDUA 151135Z AUTO 31005KT 10SM CLR 01/M02 A3025 RMK AO2
KDUA 151115Z AUTO 32005KT 10SM CLR 02/M02 A3025 RMK AO2
KDUA 151055Z AUTO 31006KT 10SM CLR 01/M02 A3024 RMK AO2
KDUA 151035Z AUTO 32006KT 10SM CLR 02/M02 A3023 RMK AO2
KDUA 151015Z AUTO 31007KT 10SM CLR 01/M02 A3023 RMK AO2
KDUA 150955Z AUTO 32003KT 10SM CLR 01/M02 A3023 RMK AO2
KDUA 150935Z AUTO 31004KT 10SM CLR 02/M01 A3024 RMK AO2
KDUA 150915Z AUTO 29005KT 10SM CLR 02/M01 A3023 RMK AO2
KDUA 150855Z AUTO 30005KT 10SM CLR 02/00 A3022 RMK AO2
KDUA 150835Z AUTO 30005KT 10SM CLR 03/00 A3022 RMK AO2
KDUA 150815Z AUTO 29005KT 10SM CLR 02/00 A3022 RMK AO2
KDUA 150755Z AUTO 28004KT 10SM CLR 01/M01 A3022 RMK AO2
KDUA 150735Z AUTO 28004KT 10SM CLR 01/M01 A3021 RMK AO2
KDUA 150715Z AUTO 28003KT 10SM CLR 00/M02 A3022 RMK AO2
KDUA 150655Z AUTO 00000KT 10SM CLR 00/M02 A3022 RMK AO2
KDUA 150635Z AUTO 00000KT 10SM CLR 01/M03 A3021 RMK AO2
KDUA 150615Z AUTO 00000KT 10SM CLR 02/M02 A3022 RMK AO2
KDUA 150555Z AUTO 29003KT 10SM CLR 01/M02 A3022 RMK AO2
KDUA 150535Z AUTO 29003KT 10SM CLR 01/M03 A3022 RMK AO2
KDUA 150515Z AUTO 00000KT 10SM CLR 01/M02 A3022 RMK AO2
KDUA 150455Z AUTO 00000KT 10SM CLR 02/M03 A3022 RMK AO2
KDUA 150435Z AUTO 00000KT 10SM CLR 02/M03 A3021 RMK AO2
KDUA 150415Z AUTO 00000KT 10SM CLR 03/M03 A3021 RMK AO2
KDUA 150355Z AUTO 00000KT 10SM CLR 03/M03 A3020 RMK AO2
KDUA 150335Z AUTO 00000KT 10SM CLR 03/M03 A3020 RMK AO2
KDUA 150315Z AUTO 00000KT 10SM CLR 03/M03 A3020 RMK AO2
KDUA 150255Z AUTO 34003KT 10SM CLR 03/M03 A3020 RMK AO2
KDUA 150235Z AUTO 00000KT 10SM CLR 04/M03 A3019 RMK AO2
KDUA 150215Z AUTO 34003KT 10SM CLR 05/M03 A3019 RMK AO2
KDUA 150155Z AUTO 35003KT 10SM CLR 05/M03 A3017 RMK AO2
KDUA 150135Z AUTO 35003KT 10SM CLR 05/M03 A3017 RMK AO2
KDUA 150115Z AUTO 35004KT 10SM CLR 05/M03 A3016 RMK AO2
KDUA 150055Z AUTO 34005KT 10SM CLR 06/M03 A3015 RMK AO2
KDUA 150035Z AUTO 35004KT 10SM CLR 06/M03 A3015 RMK AO2
KDUA 150015Z AUTO 34005KT 10SM CLR 07/M03 A3015 RMK AO2
KDUA 142355Z AUTO 34006KT 10SM CLR 08/M03 A3014 RMK AO2
KDUA 142335Z AUTO 34007KT 250V360 10SM CLR 08/M03 A3013 RMK AO2
KDUA 142315Z AUTO 34011KT 240V360 10SM CLR 10/M03 A3012 RMK AO2
KDUA 142255Z AUTO 33010KT 240V360 10SM CLR 11/M03 A3011 RMK AO2
KDUA 142235Z AUTO 34010G16KT 280V010 10SM CLR 11/M03 A3010 RMK AO2
KDUA 142215Z AUTO 33011G17KT 280V360 10SM CLR 12/M03 A3010 RMK AO2
KDUA 142155Z AUTO 35011G18KT 240V020 10SM CLR 12/M02 A3009 RMK AO2
KDUA 142135Z AUTO 33013KT 240V010 10SM CLR 12/M02 A3008 RMK AO2
KDUA 142115Z AUTO 34015G18KT 240V020 10SM CLR 13/M02 A3007 RMK AO2
KDUA 142055Z AUTO 32013KT 280V020 10SM CLR 13/M02 A3007 RMK AO2
KDUA 142035Z AUTO 36013G16KT 250V020 10SM CLR 13/M02 A3007 RMK AO2
KDUA 142015Z AUTO 35011G18KT 10SM CLR 13/M02 A3006 RMK AO2
KDUA 141955Z AUTO 33013G22KT 240V020 10SM CLR 13/M01 A3007 RMK AO2
KDUA 141935Z AUTO 34012G19KT 10SM CLR 13/M01 A3008 RMK AO2
KDUA 141915Z AUTO 34009G18KT 250V360 10SM CLR 13/M01 A3009 RMK AO2
KDUA 141855Z AUTO 33012G16KT 280V010 10SM CLR 13/M01 A3009 RMK AO2
KDUA 141835Z AUTO 34012G15KT 10SM CLR 13/M01 A3010 RMK AO2
KDUA 141815Z AUTO 01011G17KT 250V030 10SM CLR 12/M01 A3011 RMK AO2
KDUA 141755Z AUTO 36012G17KT 280V030 10SM CLR 12/M01 A3012 RMK AO2
KDUA 141735Z AUTO 03013KT 10SM CLR 12/M01 A3012 RMK AO2
KDUA 141715Z AUTO 02013KT 330V030 10SM CLR 11/M01 A3012 RMK AO2
KDUA 141655Z AUTO 03014G17KT 10SM CLR 11/M01 A3012 RMK AO2
KDUA 141635Z AUTO 03014KT 10SM CLR 11/M01 A3012 RMK AO2
KDUA 141615Z AUTO 02012KT 340V050 10SM CLR 10/M01 A3011 RMK AO2
KDUA 141555Z AUTO 01010G18KT 280V030 10SM CLR 09/M01 A3010 RMK AO2
KDUA 141535Z AUTO 01012KT 280V030 10SM CLR 08/M01 A3009 RMK AO2
KDUA 141515Z AUTO 36013KT 280V020 10SM CLR 07/M01 A3009 RMK AO2
KDUA 141455Z AUTO 01013G17KT 330V030 10SM CLR 07/M01 A3008 RMK AO2
KDUA 141435Z AUTO 01015G18KT 10SM CLR 07/M01 A3007 RMK AO2
KDUA 141415Z AUTO 01014KT 280V030 10SM CLR 06/M02 A3006 RMK AO2
KDUA 141355Z AUTO 32009KT 250V010 10SM CLR 05/M02 A3006 RMK AO2
KDUA 141335Z AUTO 32008KT 240V010 10SM CLR 05/M02 A3005 RMK AO2
KDUA 141315Z AUTO 34008KT 280V010 10SM CLR 05/M02 A3004 RMK AO2
KDUA 141255Z AUTO 36010KT 280V020 10SM CLR 05/M02 A3003 RMK AO2
KDUA 141235Z AUTO 34008KT 10SM CLR 05/M02 A3002 RMK AO2
KDUA 141215Z AUTO 30007KT 250V360 10SM CLR 05/M03 A3001 RMK AO2
KDUA 141155Z AUTO 30011KT 250V010 10SM CLR 06/M03 A2999 RMK AO2
KDUA 141135Z AUTO 33009KT 240V020 10SM CLR 06/M03 A2998 RMK AO2
KDUA 141115Z AUTO 36011KT 280V020 10SM CLR 07/M02 A2996 RMK AO2
KDUA 141055Z AUTO 36011KT 250V020 10SM CLR 06/M03 A2995 RMK AO2
KDUA 141035Z AUTO 35010KT 250V020 10SM CLR 06/M03 A2994 RMK AO2
KDUA 141015Z AUTO 31008KT 240V010 10SM CLR 06/M03 A2994 RMK AO2
KDUA 140955Z AUTO 00000KT 10SM CLR 06/M03 A2993 RMK AO2